Time;durP1;ratioP1;P1;durP2;ratioP2;P2;SDS_P1;SDS_P2;PMS_P1;PMS_P2;Temp;Humidity;BMP_temperature;BMP_pressure;BME280_temperature;BME280_humidity;BME280_pressure;Samples;Min_cycle;Max_cycle;Signal;HPM_P1;HPM_P2
2024/04/05 00:01:42;;;;;;;10.20;8.00;;;;;;;5.10;91.67;100487.16;87429;271;136108;-76
2024/04/05 00:03:42;;;;;;;10.50;8.50;;;;;;;5.11;91.80;100489.02;87460;271;24474;-77
2024/04/05 00:05:43;;;;;;;12.80;9.10;;;;;;;5.12;91.63;100489.59;87438;278;136774;-78
2024/04/05 00:07:44;;;;;;;12.50;9.70;;;;;;;5.13;91.80;100491.26;87554;271;22687;-78
2024/04/05 00:09:45;;;;;;;14.30;9.60;;;;;;;5.14;91.57;100492.10;87346;271;137410;-79
2024/04/05 00:11:46;;;;;;;10.50;8.80;;;;;;;5.15;91.64;100492.81;87572;273;25250;-77
2024/04/05 00:13:47;;;;;;;9.60;8.50;;;;;;;5.16;91.54;100492.91;87624;272;136427;-76
2024/04/05 00:15:47;;;;;;;11.70;8.60;;;;;;;5.15;91.66;100490.89;87527;276;22563;-77
2024/04/05 00:17:48;;;;;;;9.90;8.30;;;;;;;5.15;91.77;100491.81;87558;279;136449;-77
2024/04/05 00:19:48;;;;;;;11.00;8.70;;;;;;;5.13;91.91;100493.18;87690;270;24010;-76
2024/04/05 00:21:49;;;;;;;13.10;8.40;;;;;;;5.12;91.79;100494.02;87472;271;136507;-77
2024/04/05 00:23:50;;;;;;;14.50;10.00;;;;;;;5.13;91.54;100494.11;87539;272;21542;-77
2024/04/05 00:26:02;;;;;;;11.10;8.20;;;;;;;5.16;91.19;100495.92;87457;269;136642;-79
2024/04/05 00:28:03;;;;;;;11.20;9.10;;;;;;;5.19;91.13;100495.84;87575;274;135918;-74
2024/04/05 00:30:07;;;;;;;13.10;9.80;;;;;;;5.20;90.84;100502.60;87511;280;22556;-79
2024/04/05 00:32:08;;;;;;;10.00;8.30;;;;;;;5.20;90.40;100498.90;87641;268;135935;-76
2024/04/05 00:34:08;;;;;;;10.00;8.80;;;;;;;5.20;90.41;100501.54;87716;278;25076;-77
2024/04/05 00:36:11;;;;;;;13.30;8.30;;;;;;;5.22;90.13;100501.36;87424;279;136233;-76
2024/04/05 00:38:12;;;;;;;14.60;9.20;;;;;;;5.22;89.99;100498.69;87646;280;22847;-75
2024/04/05 00:40:13;;;;;;;11.70;8.60;;;;;;;5.20;89.63;100498.63;87546;271;135839;-76
2024/04/05 00:42:14;;;;;;;10.20;8.10;;;;;;;5.19;89.56;100495.05;87481;275;22526;-77
2024/04/05 00:44:14;;;;;;;9.70;7.60;;;;;;;5.18;89.37;100497.27;87677;279;136720;-77
2024/04/05 00:46:15;;;;;;;9.90;8.90;;;;;;;5.18;89.26;100497.11;87843;276;22646;-77
2024/04/05 00:48:20;;;;;;;11.20;8.40;;;;;;;5.18;89.38;100492.90;87660;276;136858;-78
2024/04/05 00:50:21;;;;;;;12.30;7.70;;;;;;;5.18;89.16;100495.40;87620;271;22590;-79
2024/04/05 00:52:22;;;;;;;8.60;7.70;;;;;;;5.17;89.31;100493.91;87426;271;136765;-78
2024/04/05 00:54:23;;;;;;;9.80;7.40;;;;;;;5.15;89.26;100493.17;87382;274;22658;-78
2024/04/05 00:56:25;;;;;;;9.70;7.60;;;;;;;5.17;89.14;100494.24;87292;271;136572;-77
2024/04/05 00:58:28;;;;;;;11.10;8.50;;;;;;;5.16;89.29;100495.45;87687;277;22586;-77
2024/04/05 01:00:31;;;;;;;9.10;6.90;;;;;;;5.17;89.73;100493.68;87774;280;137272;-80
2024/04/05 01:02:32;;;;;;;11.30;7.80;;;;;;;5.19;89.81;100495.42;87806;272;23169;-78
2024/04/05 01:04:32;;;;;;;9.90;7.70;;;;;;;5.22;89.93;100498.88;87806;271;136470;-79
2024/04/05 01:06:33;;;;;;;11.70;9.20;;;;;;;5.23;90.10;100495.89;87926;270;24084;-78
2024/04/05 01:08:34;;;;;;;9.00;8.00;;;;;;;5.26;90.23;100497.79;87673;276;136610;-78
2024/04/05 01:10:36;;;;;;;12.50;9.20;;;;;;;5.28;90.10;100500.04;87608;276;24050;-77
2024/04/05 01:12:37;;;;;;;11.20;8.00;;;;;;;5.30;90.24;100498.10;87489;268;137308;-77
2024/04/05 01:14:38;;;;;;;14.40;8.10;;;;;;;5.31;90.31;100499.96;87598;270;24064;-78
2024/04/05 01:16:39;;;;;;;13.00;9.00;;;;;;;5.30;90.50;100505.48;87645;279;136440;-81
2024/04/05 01:18:42;;;;;;;11.90;8.50;;;;;;;5.30;90.87;100505.66;87634;271;22590;-78
2024/04/05 01:20:45;;;;;;;11.20;7.60;;;;;;;5.28;91.08;100503.23;87721;270;136370;-78
2024/04/05 01:22:51;;;;;;;9.00;7.80;;;;;;;5.24;91.18;100507.10;87644;272;25255;-80
2024/04/05 01:24:52;;;;;;;13.50;7.40;;;;;;;5.19;91.05;100504.44;87593;268;136331;-79
2024/04/05 01:26:53;;;;;;;10.70;8.00;;;;;;;5.11;91.33;100504.54;87695;275;22638;-79
2024/04/05 01:28:53;;;;;;;10.40;7.30;;;;;;;5.03;91.61;100504.73;87496;271;136321;-77
2024/04/05 01:30:54;;;;;;;9.30;8.10;;;;;;;4.96;92.18;100503.48;87619;274;22559;-78
2024/04/05 01:33:01;;;;;;;10.90;8.20;;;;;;;4.92;92.89;100502.71;87508;271;136097;-77
2024/04/05 01:35:02;;;;;;;9.10;8.00;;;;;;;4.86;93.12;100499.55;87670;277;25645;-77
2024/04/05 01:37:05;;;;;;;10.70;8.30;;;;;;;4.80;93.63;100498.83;87572;278;136699;-78
2024/04/05 01:39:06;;;;;;;9.70;7.80;;;;;;;4.79;93.75;100498.08;87653;271;22589;-77
2024/04/05 01:41:06;;;;;;;8.20;7.40;;;;;;;4.81;93.52;100496.81;87407;276;136666;-77
2024/04/05 01:43:07;;;;;;;10.10;7.60;;;;;;;4.83;93.38;100502.45;87596;266;26659;-77
2024/04/05 01:45:08;;;;;;;11.00;7.50;;;;;;;4.86;92.89;100500.40;87617;274;136747;-75
2024/04/05 01:47:10;;;;;;;10.50;6.90;;;;;;;4.89;92.44;100505.05;87547;279;24292;-76
2024/04/05 01:49:10;;;;;;;8.50;6.20;;;;;;;4.90;92.13;100509.53;87441;264;136679;-77
2024/04/05 01:51:11;;;;;;;9.50;7.10;;;;;;;4.91;91.80;100506.31;87597;276;24141;-78
2024/04/05 01:53:12;;;;;;;9.20;7.10;;;;;;;4.92;91.77;100508.49;87578;276;136227;-77
2024/04/05 01:55:13;;;;;;;10.20;8.30;;;;;;;4.93;91.59;100512.98;87564;273;24213;-77
2024/04/05 01:57:14;;;;;;;8.60;7.70;;;;;;;4.94;91.69;100518.27;87064;273;137260;-77
2024/04/05 01:59:15;;;;;;;7.40;6.70;;;;;;;4.95;92.00;100522.13;87599;277;22591;-77
2024/04/05 02:01:16;;;;;;;11.10;7.00;;;;;;;4.92;92.12;100517.48;87371;279;138373;-77
2024/04/05 02:03:16;;;;;;;9.00;8.10;;;;;;;4.89;92.07;100516.85;87989;267;24000;-79
2024/04/05 02:05:17;;;;;;;10.50;7.20;;;;;;;4.88;92.30;100520.77;88917;279;136435;-80
2024/04/05 02:07:24;;;;;;;15.60;8.90;;;;;;;4.87;92.41;100519.98;88942;279;23337;-79
2024/04/05 02:09:25;;;;;;;9.10;8.10;;;;;;;4.86;92.63;100517.48;89466;266;136195;-80
2024/04/05 02:11:25;;;;;;;10.60;8.40;;;;;;;4.85;92.77;100514.53;89123;268;22591;-81
2024/04/05 02:13:26;;;;;;;8.40;6.90;;;;;;;4.84;92.64;100518.02;88362;271;137517;-83
2024/04/05 02:15:27;;;;;;;14.50;8.20;;;;;;;4.83;92.32;100523.41;87788;280;22577;-83
2024/04/05 02:17:27;;;;;;;9.70;8.10;;;;;;;4.82;92.48;100522.25;87800;268;136619;-81
2024/04/05 02:19:28;;;;;;;11.10;8.40;;;;;;;4.81;92.58;100524.48;87886;271;22542;-81
2024/04/05 02:21:30;;;;;;;10.80;8.10;;;;;;;4.77;92.70;100525.89;87704;273;136767;-83
2024/04/05 02:23:31;;;;;;;9.00;7.40;;;;;;;4.75;93.05;100526.29;87814;278;22559;-82
2024/04/05 02:25:32;;;;;;;10.40;8.10;;;;;;;4.74;93.09;100525.86;87608;268;136248;-83
2024/04/05 02:27:33;;;;;;;9.80;7.00;;;;;;;4.73;93.20;100525.29;87790;276;22561;-79
2024/04/05 02:29:34;;;;;;;8.30;7.20;;;;;;;4.71;93.07;100530.00;87765;268;136363;-82
2024/04/05 02:31:34;;;;;;;8.60;7.70;;;;;;;4.66;93.31;100528.18;87926;275;22603;-81
2024/04/05 02:33:36;;;;;;;10.20;7.80;;;;;;;4.59;93.52;100532.32;87946;271;136722;-82
2024/04/05 02:35:36;;;;;;;8.60;7.70;;;;;;;4.54;94.03;100535.52;87978;272;23995;-80
2024/04/05 02:37:37;;;;;;;9.90;8.00;;;;;;;4.46;94.23;100539.17;87516;276;137196;-81
2024/04/05 02:39:38;;;;;;;10.70;7.60;;;;;;;4.37;94.57;100540.20;87616;288;25206;-84
2024/04/05 02:41:38;;;;;;;13.20;8.00;;;;;;;4.28;94.92;100539.70;87623;279;135856;-82
2024/04/05 02:43:39;;;;;;;13.90;9.50;;;;;;;4.20;95.25;100543.21;87704;275;25065;-76
2024/04/05 02:45:40;;;;;;;9.30;8.30;;;;;;;4.12;95.71;100542.20;87450;279;138400;-83
2024/04/05 02:47:41;;;;;;;11.20;8.90;;;;;;;4.05;96.22;100543.55;87593;279;22572;-81
2024/04/05 02:49:41;;;;;;;13.50;9.00;;;;;;;3.99;96.87;100544.08;87532;270;137592;-84
2024/04/05 02:51:42;;;;;;;10.30;9.10;;;;;;;3.97;97.34;100551.65;87664;270;22534;-84
2024/04/05 02:53:43;;;;;;;11.80;8.70;;;;;;;3.95;97.62;100554.98;87644;268;136966;-78
2024/04/05 02:55:43;;;;;;;11.70;8.50;;;;;;;3.90;97.90;100557.52;87567;266;22614;-82
2024/04/05 02:57:44;;;;;;;12.10;9.00;;;;;;;3.84;98.23;100553.48;87723;271;136122;-85
2024/04/05 02:59:45;;;;;;;12.40;10.00;;;;;;;3.80;98.61;100552.50;87769;266;22574;-83
2024/04/05 03:01:46;;;;;;;12.00;9.50;;;;;;;3.77;99.08;100552.58;87763;276;136388;-83
2024/04/05 03:03:47;;;;;;;13.60;9.80;;;;;;;3.76;99.49;100552.85;87622;273;22775;-82
2024/04/05 03:05:49;;;;;;;12.90;10.00;;;;;;;3.76;99.77;100552.63;87878;268;137004;-84
2024/04/05 03:07:50;;;;;;;12.90;10.90;;;;;;;3.77;99.83;100551.14;88127;273;22564;-82
2024/04/05 03:09:51;;;;;;;13.00;10.90;;;;;;;3.78;99.96;100552.50;87866;288;136787;-81
2024/04/05 03:11:51;;;;;;;19.70;13.30;;;;;;;3.79;99.89;100555.55;87665;272;22567;-84
2024/04/05 03:13:52;;;;;;;16.90;12.40;;;;;;;3.79;99.91;100554.66;87493;280;136542;-84
2024/04/05 03:15:53;;;;;;;16.90;12.80;;;;;;;3.78;99.73;100555.46;87597;279;22558;-84
2024/04/05 03:17:54;;;;;;;14.90;11.30;;;;;;;3.77;99.48;100557.13;87692;279;136367;-82
2024/04/05 03:19:54;;;;;;;19.10;12.00;;;;;;;3.74;99.22;100559.71;87741;270;22559;-82
2024/04/05 03:21:56;;;;;;;14.70;11.60;;;;;;;3.69;99.27;100556.41;88126;266;139049;-82
2024/04/05 03:23:56;;;;;;;14.20;11.50;;;;;;;3.66;99.31;100553.73;88445;278;22512;-83
2024/04/05 03:25:57;;;;;;;13.30;10.10;;;;;;;3.63;99.18;100548.36;87844;276;136447;-81
2024/04/05 03:27:58;;;;;;;12.70;9.80;;;;;;;3.61;98.98;100546.64;87914;267;23827;-80
2024/04/05 03:29:59;;;;;;;9.00;6.70;;;;;;;3.57;99.05;100547.83;87809;277;137896;-83
2024/04/05 03:31:59;;;;;;;8.70;7.50;;;;;;;3.55;99.41;100550.70;88128;274;22527;-82
2024/04/05 03:34:00;;;;;;;12.70;8.40;;;;;;;3.54;99.38;100548.34;88101;271;137291;-81
2024/04/05 03:36:04;;;;;;;11.20;8.50;;;;;;;3.51;99.45;100547.13;88491;276;22559;-79
2024/04/05 03:38:05;;;;;;;10.20;8.40;;;;;;;3.49;99.66;100549.95;88342;267;23010;-82
2024/04/05 03:40:07;;;;;;;11.80;8.20;;;;;;;3.46;99.55;100551.29;87963;270;136529;-86
2024/04/05 03:42:08;;;;;;;10.60;8.50;;;;;;;3.44;99.96;100552.33;88225;270;24090;-85
2024/04/05 03:44:08;;;;;;;12.60;9.30;;;;;;;3.42;100.00;100548.98;88297;275;138695;-76
2024/04/05 03:46:09;;;;;;;11.40;8.90;;;;;;;3.45;100.00;100552.48;87727;276;22873;-83
2024/04/05 03:48:10;;;;;;;11.50;9.20;;;;;;;3.49;100.00;100553.98;87985;267;137150;-83
2024/04/05 03:50:11;;;;;;;12.50;9.40;;;;;;;3.57;100.00;100559.29;88790;271;22570;-86
2024/04/05 03:52:12;;;;;;;15.40;9.50;;;;;;;3.71;100.00;100559.04;89128;267;137930;-83
2024/04/05 03:54:13;;;;;;;13.40;10.20;;;;;;;3.92;100.00;100565.05;89303;268;22557;-84
2024/04/05 03:56:13;;;;;;;12.40;9.40;;;;;;;4.21;100.00;100565.42;89243;268;137291;-84
2024/04/05 03:58:14;;;;;;;15.40;10.40;;;;;;;4.63;100.00;100568.61;89359;267;22555;-81
2024/04/05 04:00:15;;;;;;;13.60;10.40;;;;;;;5.19;99.18;100571.95;88700;268;137547;-82
2024/04/05 04:02:16;;;;;;;11.20;9.50;;;;;;;5.78;96.55;100573.09;87896;271;24612;-82
2024/04/05 04:04:18;;;;;;;10.90;9.10;;;;;;;6.41;93.55;100577.23;87747;269;136168;-85
2024/04/05 04:06:19;;;;;;;16.80;10.60;;;;;;;7.04;88.99;100574.84;88538;270;22560;-85
2024/04/05 04:08:20;;;;;;;14.20;10.90;;;;;;;7.61;84.70;100572.11;87857;272;137126;-85
2024/04/05 04:10:24;;;;;;;14.30;9.60;;;;;;;8.12;80.65;100571.82;87965;268;25089;-83
2024/04/05 04:12:25;;;;;;;14.20;11.10;;;;;;;8.56;77.89;100579.15;87591;287;135827;-80
2024/04/05 04:14:26;;;;;;;16.20;10.30;;;;;;;9.02;74.92;100581.10;87166;281;746601;-80
2024/04/05 04:16:27;;;;;;;18.10;11.40;;;;;;;9.43;72.06;100585.21;87576;283;136215;-81
2024/04/05 04:18:28;;;;;;;17.70;12.40;;;;;;;9.83;69.42;100588.46;88103;270;22557;-81
2024/04/05 04:20:29;;;;;;;18.70;12.90;;;;;;;10.21;66.97;100591.98;87787;279;137624;-78
2024/04/05 04:22:29;;;;;;;15.10;12.80;;;;;;;10.59;64.96;100589.99;87657;268;25179;-77
2024/04/05 04:24:30;;;;;;;16.40;12.90;;;;;;;11.02;63.20;100589.06;87349;270;136569;-79
2024/04/05 04:26:31;;;;;;;26.80;14.00;;;;;;;11.48;60.79;100582.08;87318;262;24590;-81
2024/04/05 04:28:35;;;;;;;17.60;13.20;;;;;;;11.87;58.75;100585.67;87620;268;136776;-78
2024/04/05 04:30:35;;;;;;;17.50;14.10;;;;;;;12.21;56.75;100587.09;87728;268;23517;-74
2024/04/05 04:32:36;;;;;;;15.70;12.60;;;;;;;12.45;54.42;100590.28;87505;276;136813;-80
2024/04/05 04:34:37;;;;;;;15.30;12.70;;;;;;;12.70;54.23;100588.73;87696;276;22578;-79
2024/04/05 04:36:38;;;;;;;14.00;12.30;;;;;;;13.08;53.13;100587.04;87417;272;136594;-76
2024/04/05 04:38:39;;;;;;;19.00;13.10;;;;;;;13.47;51.72;100585.17;87563;268;22564;-74
2024/04/05 04:40:39;;;;;;;24.30;13.80;;;;;;;13.75;49.73;100582.23;87610;271;137933;-76
2024/04/05 04:42:40;;;;;;;18.00;12.50;;;;;;;13.87;49.34;100578.66;87605;272;24834;-76
2024/04/05 04:44:41;;;;;;;15.50;13.10;;;;;;;14.00;48.19;100581.56;87525;267;136489;-77
2024/04/05 04:46:42;;;;;;;16.30;12.80;;;;;;;14.09;48.05;100584.34;87460;281;22537;-76
2024/04/05 04:48:42;;;;;;;16.40;12.00;;;;;;;14.28;47.90;100593.73;87442;268;136261;-75
2024/04/05 04:50:44;;;;;;;14.00;12.30;;;;;;;14.54;47.24;100599.52;87627;267;25111;-77
2024/04/05 04:52:44;;;;;;;16.80;11.80;;;;;;;14.83;46.23;100601.18;87551;268;136100;-79
2024/04/05 04:54:45;;;;;;;13.90;11.60;;;;;;;15.13;45.50;100602.16;87873;275;22629;-78
2024/04/05 04:56:46;;;;;;;16.60;11.60;;;;;;;15.25;44.81;100602.54;87688;278;135956;-79
2024/04/05 04:58:47;;;;;;;16.30;12.60;;;;;;;15.14;44.25;100605.98;87697;275;22550;-78
2024/04/05 05:00:51;;;;;;;12.20;10.90;;;;;;;14.76;44.36;100609.27;88675;267;136260;-76
2024/04/05 05:02:52;;;;;;;16.50;10.70;;;;;;;14.33;44.96;100607.92;87642;279;25088;-76
2024/04/05 05:04:52;;;;;;;11.80;10.60;;;;;;;13.89;45.57;100613.61;87773;271;138840;-84
2024/04/05 05:06:53;;;;;;;13.20;10.20;;;;;;;13.44;46.40;100619.01;87862;268;22661;-82
2024/04/05 05:08:54;;;;;;;14.50;10.50;;;;;;;13.11;47.53;100616.98;87744;270;137380;-81
2024/04/05 05:10:55;;;;;;;17.30;10.30;;;;;;;12.98;48.34;100615.97;87907;271;25150;-84
2024/04/05 05:12:55;;;;;;;12.40;10.60;;;;;;;12.97;48.67;100620.04;87784;278;136493;-86
2024/04/05 05:14:57;;;;;;;12.60;10.40;;;;;;;13.10;48.68;100615.67;88643;267;22567;-84
2024/04/05 05:16:59;;;;;;;12.20;9.90;;;;;;;13.21;47.89;100615.81;89088;268;136220;-80
2024/04/05 05:19:00;;;;;;;13.10;10.10;;;;;;;13.09;47.98;100614.51;88439;267;23694;-81
2024/04/05 05:21:01;;;;;;;12.00;9.80;;;;;;;13.11;48.53;100611.96;88177;279;136154;-83
2024/04/05 05:23:01;;;;;;;12.60;10.10;;;;;;;13.25;48.03;100613.42;88527;271;22797;-82
2024/04/05 05:25:02;;;;;;;11.80;10.50;;;;;;;13.28;47.71;100618.39;89667;270;136250;-79
2024/04/05 05:27:03;;;;;;;11.20;10.00;;;;;;;13.31;48.34;100617.45;89987;267;24003;-78
2024/04/05 05:29:04;;;;;;;10.50;9.40;;;;;;;13.52;47.65;100621.85;89796;266;136473;-80
2024/04/05 05:31:05;;;;;;;10.70;9.20;;;;;;;13.52;47.26;100620.16;89918;266;22581;-82
2024/04/05 05:33:09;;;;;;;13.00;9.70;;;;;;;13.57;47.81;100619.94;89215;268;137656;-82
2024/04/05 05:35:09;;;;;;;10.00;8.80;;;;;;;13.83;47.52;100619.64;90035;266;22615;-80
2024/04/05 05:37:10;;;;;;;9.30;8.30;;;;;;;14.11;47.09;100617.08;89848;266;137100;-78
2024/04/05 05:39:11;;;;;;;9.10;7.40;;;;;;;14.29;46.33;100613.66;89876;266;22506;-81
2024/04/05 05:41:12;;;;;;;6.80;6.00;;;;;;;14.21;46.01;100618.70;89527;267;137212;-83
2024/04/05 05:43:13;;;;;;;6.30;5.80;;;;;;;14.05;46.52;100617.85;88981;279;22523;-85
2024/04/05 05:45:14;;;;;;;9.60;7.00;;;;;;;14.02;46.24;100613.69;89245;265;135931;-83
2024/04/05 05:47:16;;;;;;;8.40;7.30;;;;;;;13.96;46.64;100614.41;89272;268;22554;-86
2024/04/05 05:49:17;;;;;;;10.50;9.60;;;;;;;14.00;46.14;100613.39;89001;268;136039;-82
2024/04/05 05:51:18;;;;;;;8.80;8.00;;;;;;;13.92;45.63;100617.92;90046;267;22523;-80
2024/04/05 05:53:21;;;;;;;7.90;7.10;;;;;;;13.61;45.81;100615.20;90117;266;135768;-79
2024/04/05 05:55:22;;;;;;;7.20;6.10;;;;;;;13.42;46.45;100616.17;90160;266;22878;-78
2024/04/05 05:57:23;;;;;;;5.20;4.70;;;;;;;13.35;47.08;100612.69;89970;266;135857;-82
2024/04/05 05:59:24;;;;;;;8.50;6.10;;;;;;;13.15;47.70;100609.71;89444;266;22555;-82
2024/04/05 06:01:25;;;;;;;7.50;6.80;;;;;;;12.91;48.43;100609.31;89598;271;136802;-79
2024/04/05 06:03:28;;;;;;;7.00;6.40;;;;;;;12.80;49.01;100608.21;89760;271;22802;-82
2024/04/05 06:05:29;;;;;;;6.80;6.10;;;;;;;12.52;49.53;100614.44;88418;268;136034;-78
2024/04/05 06:07:30;;;;;;;9.30;6.90;;;;;;;12.38;49.84;100614.13;87869;271;25080;-80
2024/04/05 06:09:31;;;;;;;6.90;6.30;;;;;;;12.37;49.70;100612.48;87917;280;135914;-82
2024/04/05 06:11:32;;;;;;;7.00;6.30;;;;;;;12.18;50.13;100616.75;87980;275;24087;-82
2024/04/05 06:13:34;;;;;;;10.30;7.60;;;;;;;11.93;50.74;100617.90;87709;281;135554;-84
2024/04/05 06:15:34;;;;;;;7.80;7.00;;;;;;;11.65;51.79;100609.98;87667;272;25092;-82
2024/04/05 06:17:36;;;;;;;8.50;7.70;;;;;;;11.50;52.79;100614.63;87389;272;136473;-75
2024/04/05 06:19:38;;;;;;;6.70;6.10;;;;;;;11.55;53.20;100613.69;87571;278;23585;-76
2024/04/05 06:21:38;;;;;;;7.80;7.10;;;;;;;11.72;52.89;100616.92;87501;275;137102;-76
2024/04/05 06:23:39;;;;;;;6.60;5.90;;;;;;;11.76;52.40;100608.98;87620;266;22556;-79
2024/04/05 06:25:40;;;;;;;12.80;7.20;;;;;;;11.74;52.61;100612.39;87499;270;136097;-80
2024/04/05 06:27:42;;;;;;;7.50;6.70;;;;;;;11.75;52.88;100614.74;87530;271;23396;-72
2024/04/05 06:29:55;;;;;;;6.30;5.60;;;;;;;11.84;53.08;100614.76;87430;268;135830;-76
2024/04/05 06:31:56;;;;;;;7.50;5.80;;;;;;;12.02;51.63;100617.76;87967;272;25135;-73
2024/04/05 06:33:57;;;;;;;6.60;5.10;;;;;;;12.16;50.76;100617.71;87598;263;135685;-74
2024/04/05 06:35:59;;;;;;;8.90;5.70;;;;;;;12.24;50.55;100613.88;87496;271;23538;-75
2024/04/05 06:38:00;;;;;;;8.20;6.40;;;;;;;12.34;49.58;100620.64;87459;272;135509;-77
2024/04/05 06:40:01;;;;;;;10.30;6.30;;;;;;;12.37;49.94;100613.88;87504;268;22562;-74
2024/04/05 06:42:02;;;;;;;7.40;6.60;;;;;;;12.35;49.77;100619.20;87511;279;22567;-75
2024/04/05 06:44:03;;;;;;;8.20;7.00;;;;;;;12.25;49.88;100620.31;87303;274;137040;-76
2024/04/05 06:46:04;;;;;;;7.30;6.60;;;;;;;12.24;50.10;100619.59;87439;272;24020;-74
2024/04/05 06:48:05;;;;;;;8.60;6.80;;;;;;;12.28;50.23;100619.10;87496;275;136171;-74
2024/04/05 06:50:06;;;;;;;7.70;6.30;;;;;;;12.15;50.86;100613.23;87588;276;22582;-75
2024/04/05 06:52:08;;;;;;;8.90;7.50;;;;;;;12.06;50.74;100610.63;87445;271;136414;-76
2024/04/05 06:54:09;;;;;;;9.90;7.50;;;;;;;11.66;51.06;100611.03;87612;271;22546;-71
2024/04/05 06:56:10;;;;;;;10.80;9.60;;;;;;;11.09;52.91;100607.95;87524;266;136550;-77
2024/04/05 06:58:12;;;;;;;9.70;8.30;;;;;;;10.64;54.57;100609.26;87695;276;24094;-76
2024/04/05 07:00:15;;;;;;;10.60;8.20;;;;;;;10.34;56.42;100610.10;87456;272;135994;-74
2024/04/05 07:02:19;;;;;;;7.70;6.90;;;;;;;10.11;57.68;100606.90;87503;276;24036;-73
2024/04/05 07:04:23;;;;;;;7.70;6.60;;;;;;;9.99;58.45;100614.33;87392;268;136019;-75
2024/04/05 07:06:24;;;;;;;10.50;8.10;;;;;;;9.86;58.92;100612.65;87389;272;25182;-75
2024/04/05 07:08:25;;;;;;;8.50;7.60;;;;;;;9.78;59.13;100615.23;87494;263;136135;-75
2024/04/05 07:10:27;;;;;;;7.60;6.00;;;;;;;9.76;59.93;100618.99;87535;274;25086;-74
2024/04/05 07:12:28;;;;;;;10.30;6.00;;;;;;;9.74;59.99;100622.55;87474;272;135794;-78
2024/04/05 07:14:28;;;;;;;6.20;5.60;;;;;;;9.67;59.95;100632.79;87553;264;23053;-78
2024/04/05 07:16:29;;;;;;;7.20;5.70;;;;;;;9.61;60.33;100631.50;87458;266;137175;-77
2024/04/05 07:18:30;;;;;;;11.80;7.20;;;;;;;9.63;60.64;100626.90;87706;271;23284;-77
2024/04/05 07:20:31;;;;;;;7.70;6.40;;;;;;;9.61;60.55;100623.34;87307;275;137878;-79
2024/04/05 07:22:32;;;;;;;6.30;5.80;;;;;;;9.55;61.02;100620.25;87499;270;26204;-76
2024/04/05 07:24:32;;;;;;;14.10;7.50;;;;;;;9.54;61.75;100620.02;87399;270;136476;-77
2024/04/05 07:26:33;;;;;;;7.30;6.30;;;;;;;9.58;61.55;100624.44;87537;271;22569;-78
2024/04/05 07:28:34;;;;;;;8.60;5.90;;;;;;;9.59;61.05;100625.48;87339;268;136574;-78
2024/04/05 07:30:36;;;;;;;7.70;5.60;;;;;;;9.64;61.01;100623.41;87483;279;25897;-80
2024/04/05 07:32:37;;;;;;;7.90;4.90;;;;;;;9.68;61.44;100624.55;87411;275;136093;-80
2024/04/05 07:34:37;;;;;;;7.40;5.40;;;;;;;9.65;61.09;100624.41;87566;266;22561;-80
2024/04/05 07:36:38;;;;;;;6.30;5.10;;;;;;;9.61;61.35;100624.38;87455;262;136042;-79
2024/04/05 07:38:39;;;;;;;5.50;5.00;;;;;;;9.56;61.35;100623.21;87808;277;22560;-76
2024/04/05 07:40:40;;;;;;;6.20;5.20;;;;;;;9.55;61.54;100625.98;87575;270;137146;-74
2024/04/05 07:42:41;;;;;;;7.40;5.60;;;;;;;9.55;61.76;100627.86;87650;270;22571;-75
2024/04/05 07:44:43;;;;;;;4.60;3.90;;;;;;;9.56;62.15;100620.84;87397;270;135863;-74
2024/04/05 07:46:43;;;;;;;5.40;3.20;;;;;;;9.64;62.11;100617.51;87524;271;22515;-77
2024/04/05 07:48:45;;;;;;;6.80;3.70;;;;;;;9.71;62.13;100619.56;87652;268;136739;-75
2024/04/05 07:50:46;;;;;;;3.20;2.80;;;;;;;9.76;62.50;100617.00;88364;268;22560;-73
2024/04/05 07:52:54;;;;;;;6.20;2.80;;;;;;;9.82;62.71;100620.95;88334;268;137807;-75
2024/04/05 07:54:55;;;;;;;7.90;3.00;;;;;;;9.90;62.27;100615.00;88381;276;24091;-75
2024/04/05 07:56:56;;;;;;;6.20;2.90;;;;;;;10.03;62.27;100619.05;88227;267;135818;-75
2024/04/05 07:58:57;;;;;;;3.50;2.50;;;;;;;10.16;61.64;100612.55;88701;268;24034;-75
2024/04/05 08:00:57;;;;;;;7.20;4.30;;;;;;;10.25;61.58;100612.02;88163;275;136081;-76
2024/04/05 08:02:58;;;;;;;4.30;3.20;;;;;;;10.28;60.70;100614.73;87559;267;22810;-76
2024/04/05 08:04:59;;;;;;;7.00;2.60;;;;;;;10.23;60.68;100612.67;87343;268;135725;-75
2024/04/05 08:06:59;;;;;;;6.70;2.40;;;;;;;10.25;61.01;100609.58;87649;270;22553;-75
2024/04/05 08:09:00;;;;;;;2.40;2.10;;;;;;;10.29;61.06;100610.84;87467;271;136298;-77
2024/04/05 08:11:02;;;;;;;2.20;1.70;;;;;;;10.30;61.08;100605.64;87604;269;22564;-74
2024/04/05 08:13:03;;;;;;;2.90;2.40;;;;;;;10.30;60.83;100606.11;87404;274;136965;-75
2024/04/05 08:17:26;;;;;;;3.80;2.80;;;;;;;10.22;60.86;100610.32;85117;303;617209;-74
2024/04/05 08:19:27;;;;;;;3.50;3.10;;;;;;;10.20;60.87;100601.68;86400;288;22866;-75
2024/04/05 08:21:27;;;;;;;5.60;3.60;;;;;;;10.16;60.98;100606.67;86820;282;135160;-76
2024/04/05 08:23:28;;;;;;;4.70;2.80;;;;;;;10.22;61.30;100608.27;86945;279;22564;-76
2024/04/05 08:25:29;;;;;;;2.40;2.20;;;;;;;10.37;61.69;100612.28;86757;275;136832;-76
2024/04/05 08:27:31;;;;;;;3.00;2.50;;;;;;;10.56;61.41;100614.50;86834;282;25689;-76
2024/04/05 08:29:32;;;;;;;4.40;3.30;;;;;;;10.71;60.91;100612.55;86953;284;136772;-75
2024/04/05 08:31:33;;;;;;;6.80;3.00;;;;;;;10.78;60.34;100608.02;86485;278;859350;-77
2024/04/05 08:33:33;;;;;;;3.20;2.70;;;;;;;10.74;60.45;100607.72;86766;276;135947;-76
2024/04/05 08:35:34;;;;;;;6.00;2.50;;;;;;;10.72;60.93;100602.67;87236;274;24115;-76
2024/04/05 08:37:37;;;;;;;4.50;2.80;;;;;;;10.75;61.12;100604.31;86978;271;135551;-74
2024/04/05 08:39:38;;;;;;;3.50;2.30;;;;;;;10.81;60.87;100602.98;87012;274;22574;-76
2024/04/05 08:41:43;;;;;;;3.60;2.90;;;;;;;10.90;60.74;100596.75;87121;274;135541;-73
2024/04/05 08:43:46;;;;;;;;;;;;;;;10.98;60.40;100597.27;87334;282;25255;-74
2024/04/05 08:45:47;;;;;;;2.00;1.60;;;;;;;10.98;59.90;100600.83;87061;271;123490;-75
2024/04/05 08:47:50;;;;;;;2.30;1.90;;;;;;;10.91;59.97;100598.44;87256;278;24404;-73
2024/04/05 08:49:52;;;;;;;4.80;1.70;;;;;;;10.85;60.35;100596.71;87225;270;135570;-75
2024/04/05 08:51:53;;;;;;;2.20;1.50;;;;;;;10.78;59.96;100596.41;87248;278;22571;-75
2024/04/05 08:53:53;;;;;;;4.60;1.60;;;;;;;10.73;60.14;100600.80;87613;271;136124;-78
2024/04/05 08:55:59;;;;;;;2.70;2.50;;;;;;;10.68;60.31;100596.11;87689;273;22572;-76
2024/04/05 08:58:00;;;;;;;2.80;2.30;;;;;;;10.65;60.71;100589.02;87468;270;135227;-74
2024/04/05 09:00:01;;;;;;;2.70;1.60;;;;;;;10.64;59.69;100591.67;87606;275;22651;-76
2024/04/05 09:02:02;;;;;;;3.00;1.80;;;;;;;10.64;59.69;100591.88;87491;277;135153;-75
2024/04/05 09:04:05;;;;;;;3.70;1.80;;;;;;;10.65;59.70;100590.28;87483;264;136524;-74
2024/04/05 09:06:07;;;;;;;2.80;1.30;;;;;;;10.71;60.03;100582.30;87479;272;24004;-73
2024/04/05 09:08:08;;;;;;;3.50;1.70;;;;;;;10.80;59.08;100581.86;87593;272;135999;-74
2024/04/05 09:10:19;;;;;;;1.30;1.20;;;;;;;10.93;57.97;100586.89;87757;270;22554;-74
2024/04/05 09:12:25;;;;;;;3.60;1.80;;;;;;;11.02;57.25;100585.41;87707;268;136662;-73
2024/04/05 09:14:27;;;;;;;1.10;0.80;;;;;;;11.06;57.60;100577.89;87647;268;22788;-75
2024/04/05 09:16:27;;;;;;;1.40;1.30;;;;;;;11.15;57.29;100576.48;87541;266;138476;-75
2024/04/05 09:18:31;;;;;;;3.00;1.00;;;;;;;11.28;56.65;100575.08;87685;279;22611;-75
2024/04/05 09:20:34;;;;;;;3.30;1.30;;;;;;;11.38;56.80;100576.20;87468;271;135469;-75
2024/04/05 09:22:34;;;;;;;5.00;1.00;;;;;;;11.47;56.21;100578.66;87633;278;22576;-74
2024/04/05 09:24:35;;;;;;;3.10;1.30;;;;;;;11.49;55.68;100578.36;87229;272;136053;-75
2024/04/05 09:26:36;;;;;;;5.00;1.60;;;;;;;11.48;55.49;100581.75;87594;271;22564;-78
2024/04/05 09:28:37;;;;;;;1.20;1.10;;;;;;;11.48;55.20;100578.22;87537;278;135723;-77
2024/04/05 09:30:38;;;;;;;3.30;1.20;;;;;;;11.51;55.48;100573.98;87555;277;22566;-76